createdAt,value
2019-03-08T00:00:05.212Z,980.6
2019-03-08T00:01:05.926Z,980.9
2019-03-08T00:02:06.637Z,980.7
2019-03-08T00:03:07.334Z,980.7
2019-03-08T00:04:08.046Z,980.6
2019-03-08T00:05:08.757Z,980.5
2019-03-08T00:06:09.464Z,980.9
2019-03-08T00:07:10.183Z,980.7
2019-03-08T00:08:10.898Z,980.6
2019-03-08T00:09:11.609Z,980.7
2019-03-08T00:10:12.325Z,980.7
2019-03-08T00:11:13.020Z,980.7
2019-03-08T00:12:13.744Z,980.7
2019-03-08T00:13:14.455Z,980.8
2019-03-08T00:14:15.166Z,980.7
2019-03-08T00:15:15.885Z,980.9
2019-03-08T00:16:16.614Z,980.7
2019-03-08T00:17:17.320Z,980.8
2019-03-08T00:18:18.030Z,980.6
2019-03-08T00:19:18.833Z,980.7
2019-03-08T00:20:19.541Z,980.9
2019-03-08T00:21:20.236Z,981.0
2019-03-08T00:22:20.948Z,980.8
2019-03-08T00:23:21.644Z,980.9
2019-03-08T00:24:22.401Z,980.9
2019-03-08T00:25:23.102Z,981.0
2019-03-08T00:26:23.815Z,981.0
2019-03-08T00:27:24.522Z,981.1
2019-03-08T00:28:25.218Z,981.0
2019-03-08T00:29:25.987Z,981.0
2019-03-08T00:30:26.696Z,981.0
2019-03-08T00:31:27.402Z,981.0
2019-03-08T00:32:28.117Z,981.1
2019-03-08T00:33:28.860Z,981.0
2019-03-08T00:34:29.571Z,981.0
2019-03-08T00:35:30.272Z,981.2
2019-03-08T00:36:30.981Z,980.9
2019-03-08T00:37:31.700Z,981.0
2019-03-08T00:38:32.406Z,981.1
2019-03-08T00:39:33.124Z,980.9
2019-03-08T00:40:33.831Z,981.1
2019-03-08T00:41:34.540Z,981.1
2019-03-08T00:42:35.252Z,981.0
2019-03-08T00:43:35.958Z,981.1
2019-03-08T00:44:36.674Z,981.0
2019-03-08T00:45:37.385Z,980.9
2019-03-08T00:46:38.095Z,981.0
2019-03-08T00:47:38.789Z,981.3
2019-03-08T00:48:39.507Z,981.2
2019-03-08T00:49:40.223Z,981.0
2019-03-08T00:50:40.989Z,981.0
2019-03-08T00:51:41.686Z,981.1
2019-03-08T00:52:42.406Z,981.0
2019-03-08T00:53:43.111Z,981.1
2019-03-08T00:54:43.829Z,981.2
2019-03-08T00:55:44.545Z,981.0
2019-03-08T00:56:45.318Z,981.2
2019-03-08T00:57:46.021Z,981.0
2019-03-08T00:58:46.733Z,981.2
2019-03-08T00:59:47.442Z,981.1
2019-03-08T01:00:48.159Z,981.1
2019-03-08T01:01:48.851Z,981.1
2019-03-08T01:02:49.560Z,981.1
2019-03-08T01:03:50.262Z,981.2
2019-03-08T01:04:50.975Z,981.1
2019-03-08T01:05:51.671Z,981.1
2019-03-08T01:06:52.371Z,981.1
2019-03-08T01:07:53.069Z,981.1
2019-03-08T01:08:53.779Z,981.1
2019-03-08T01:09:54.498Z,980.9
2019-03-08T01:10:55.203Z,981.0
2019-03-08T01:11:55.915Z,981.0
2019-03-08T01:12:56.729Z,981.1
2019-03-08T01:13:57.436Z,981.1
2019-03-08T01:14:58.145Z,981.1
2019-03-08T01:15:58.859Z,981.3
2019-03-08T01:16:59.551Z,980.9
2019-03-08T01:18:00.263Z,981.0
2019-03-08T01:19:00.984Z,981.1
2019-03-08T01:20:01.691Z,981.1
2019-03-08T01:21:02.409Z,981.1
2019-03-08T01:22:03.119Z,981.1
2019-03-08T01:23:03.827Z,981.1
2019-03-08T01:24:04.528Z,981.1
2019-03-08T01:25:05.235Z,981.1
2019-03-08T01:26:05.942Z,981.1
2019-03-08T01:27:06.653Z,981.2
2019-03-08T01:28:07.352Z,981.1
2019-03-08T01:29:08.066Z,981.1
2019-03-08T01:30:08.774Z,981.1
2019-03-08T01:31:09.482Z,981.2
2019-03-08T01:32:10.176Z,981.4
2019-03-08T01:33:10.894Z,981.3
2019-03-08T01:34:11.703Z,981.2
2019-03-08T01:35:12.411Z,981.3
2019-03-08T01:36:13.113Z,981.3
2019-03-08T01:37:13.831Z,981.2
2019-03-08T01:38:14.550Z,981.3
2019-03-08T01:39:15.258Z,981.4
2019-03-08T01:40:15.955Z,981.3
2019-03-08T01:41:16.664Z,981.2
2019-03-08T01:42:17.387Z,981.3
2019-03-08T01:43:18.105Z,981.4
2019-03-08T01:44:18.798Z,981.3
2019-03-08T01:45:19.512Z,981.3
2019-03-08T01:46:20.221Z,981.4
2019-03-08T01:47:20.927Z,981.2
2019-03-08T01:48:21.633Z,981.4
2019-03-08T01:49:22.342Z,981.3
2019-03-08T01:50:23.057Z,981.4
2019-03-08T01:51:23.762Z,981.5
2019-03-08T01:52:24.610Z,981.4
2019-03-08T01:53:25.326Z,981.5
2019-03-08T01:54:26.029Z,981.5
2019-03-08T01:55:26.729Z,981.4
2019-03-08T01:56:27.436Z,981.6
2019-03-08T01:57:28.143Z,981.5
2019-03-08T01:58:28.863Z,981.6
2019-03-08T01:59:29.560Z,981.6
2019-03-08T02:00:30.258Z,981.6
2019-03-08T02:01:30.999Z,981.5
2019-03-08T02:02:31.686Z,981.7
2019-03-08T02:03:32.393Z,981.5
2019-03-08T02:04:33.135Z,981.6
2019-03-08T02:05:33.798Z,981.6
2019-03-08T02:06:34.522Z,981.6
2019-03-08T02:07:35.235Z,981.6
2019-03-08T02:08:35.943Z,981.6
2019-03-08T02:09:36.687Z,981.6
2019-03-08T02:10:37.335Z,981.6
2019-03-08T02:11:38.043Z,981.6
2019-03-08T02:12:38.747Z,981.6
2019-03-08T02:13:39.458Z,981.9
2019-03-08T02:14:40.161Z,981.6
2019-03-08T02:15:40.901Z,981.6
2019-03-08T02:16:41.612Z,981.5
2019-03-08T02:17:42.314Z,981.6
2019-03-08T02:18:43.021Z,981.6
2019-03-08T02:19:43.726Z,981.7
2019-03-08T02:20:44.436Z,981.6
2019-03-08T02:21:45.288Z,981.7
2019-03-08T02:22:46.009Z,981.7
2019-03-08T02:23:46.719Z,981.7
2019-03-08T02:24:47.440Z,981.7
2019-03-08T02:25:48.146Z,981.8
2019-03-08T02:26:48.844Z,981.7
2019-03-08T02:27:49.541Z,981.8
2019-03-08T02:28:50.245Z,981.7
2019-03-08T02:29:50.961Z,981.7
2019-03-08T02:30:51.675Z,981.7
2019-03-08T02:31:52.384Z,981.7
2019-03-08T02:32:53.083Z,981.8
2019-03-08T02:33:53.788Z,981.8
2019-03-08T02:34:54.501Z,981.8
2019-03-08T02:35:55.225Z,981.8
2019-03-08T02:36:55.926Z,981.8
2019-03-08T02:37:56.638Z,981.9
2019-03-08T02:38:57.347Z,981.9
2019-03-08T02:39:58.059Z,982.0
2019-03-08T02:40:58.760Z,982.0
2019-03-08T02:41:59.468Z,982.0
2019-03-08T02:43:00.277Z,982.1
2019-03-08T02:44:00.983Z,982.1
2019-03-08T02:45:01.686Z,982.2
2019-03-08T02:46:02.386Z,982.1
2019-03-08T02:47:03.098Z,982.3
2019-03-08T02:48:03.802Z,982.2
2019-03-08T02:49:06.311Z,982.3
2019-03-08T02:50:05.291Z,982.2
2019-03-08T02:51:05.993Z,982.2
2019-03-08T02:52:06.695Z,982.3
2019-03-08T02:53:07.410Z,982.2
2019-03-08T02:54:08.127Z,982.3
2019-03-08T02:55:08.847Z,982.4
2019-03-08T02:56:09.537Z,982.4
2019-03-08T02:57:10.251Z,982.6
2019-03-08T02:58:10.959Z,982.5
2019-03-08T02:59:11.656Z,982.4
2019-03-08T03:00:12.365Z,982.4
2019-03-08T03:01:13.078Z,982.3
2019-03-08T03:02:13.774Z,982.4
2019-03-08T03:03:14.481Z,982.4
2019-03-08T03:04:15.175Z,982.2
2019-03-08T03:05:16.130Z,982.6
2019-03-08T03:06:16.850Z,982.4
2019-03-08T03:07:17.552Z,982.5
2019-03-08T03:08:18.291Z,982.6
2019-03-08T03:09:18.960Z,982.5
2019-03-08T03:10:19.665Z,982.7
2019-03-08T03:11:20.372Z,982.5
2019-03-08T03:12:21.085Z,982.5
2019-03-08T03:13:21.789Z,982.6
2019-03-08T03:14:22.497Z,982.5
2019-03-08T03:15:23.197Z,982.5
2019-03-08T03:16:23.909Z,982.6
2019-03-08T03:17:24.602Z,982.6
2019-03-08T03:18:25.552Z,982.5
2019-03-08T03:19:26.260Z,982.6
2019-03-08T03:20:27.069Z,982.6
2019-03-08T03:21:27.772Z,982.6
2019-03-08T03:22:28.471Z,982.6
2019-03-08T03:23:29.181Z,982.7
2019-03-08T03:24:29.901Z,982.6
2019-03-08T03:25:30.601Z,982.5
2019-03-08T03:26:31.295Z,982.9
2019-03-08T03:27:32.038Z,982.7
2019-03-08T03:28:32.758Z,982.8
2019-03-08T03:29:33.802Z,982.8
2019-03-08T03:30:34.548Z,982.7
2019-03-08T03:31:35.267Z,982.8
2019-03-08T03:32:36.139Z,982.6
2019-03-08T03:33:36.922Z,982.7
2019-03-08T03:34:37.618Z,982.7
2019-03-08T03:35:38.329Z,982.7
2019-03-08T03:36:39.038Z,982.7
2019-03-08T03:37:39.742Z,982.8
2019-03-08T03:38:40.451Z,982.9
2019-03-08T03:39:41.163Z,982.8
2019-03-08T03:40:41.865Z,982.8
2019-03-08T03:41:42.581Z,982.9
2019-03-08T03:42:43.286Z,982.9
2019-03-08T03:43:43.995Z,983.0
2019-03-08T03:44:44.696Z,983.0
2019-03-08T03:45:45.400Z,983.0
2019-03-08T03:46:46.102Z,983.0
2019-03-08T03:47:46.908Z,982.9
2019-03-08T03:48:47.628Z,982.9
2019-03-08T03:49:48.335Z,983.1
2019-03-08T03:50:49.039Z,983.0
2019-03-08T03:51:49.741Z,983.0
2019-03-08T03:52:50.440Z,983.0
2019-03-08T03:53:51.263Z,982.9
2019-03-08T03:54:51.960Z,983.1
2019-03-08T03:55:52.650Z,983.1
2019-03-08T03:56:53.633Z,983.1
2019-03-08T03:57:54.057Z,983.1
2019-03-08T03:58:54.758Z,983.1
2019-03-08T03:59:55.474Z,983.2
2019-03-08T04:00:56.208Z,983.2
2019-03-08T04:01:56.884Z,983.3
2019-03-08T04:02:57.596Z,983.3
2019-03-08T04:03:58.293Z,983.3
2019-03-08T04:04:58.990Z,983.4
2019-03-08T04:05:59.696Z,983.4
2019-03-08T04:07:00.409Z,983.4
2019-03-08T04:08:01.114Z,983.4
2019-03-08T04:09:01.810Z,983.5
2019-03-08T04:10:02.507Z,983.4
2019-03-08T04:11:03.220Z,983.4
2019-03-08T04:12:03.919Z,983.5
2019-03-08T04:13:04.620Z,983.4
2019-03-08T04:14:05.332Z,983.5
2019-03-08T04:15:06.035Z,983.7
2019-03-08T04:16:06.744Z,983.6
2019-03-08T04:17:07.438Z,983.6
2019-03-08T04:18:08.157Z,983.6
2019-03-08T04:19:08.871Z,983.7
2019-03-08T04:20:09.570Z,983.7
2019-03-08T04:21:10.271Z,983.7
2019-03-08T04:22:10.968Z,983.7
2019-03-08T04:23:11.681Z,983.7
2019-03-08T04:24:12.389Z,983.8
2019-03-08T04:25:13.192Z,983.8
2019-03-08T04:26:13.907Z,983.8
2019-03-08T04:27:14.610Z,983.9
2019-03-08T04:28:15.307Z,983.8
2019-03-08T04:29:16.013Z,983.9
2019-03-08T04:30:16.810Z,983.9
2019-03-08T04:31:17.506Z,983.9
2019-03-08T04:32:18.220Z,984.0
2019-03-08T04:33:18.921Z,984.0
2019-03-08T04:34:19.627Z,984.1
2019-03-08T04:35:20.343Z,984.1
2019-03-08T04:36:21.036Z,984.0
2019-03-08T04:37:21.730Z,984.0
2019-03-08T04:38:22.438Z,984.1
2019-03-08T04:39:23.153Z,984.0
2019-03-08T04:40:23.840Z,984.1
2019-03-08T04:41:24.535Z,984.2
2019-03-08T04:42:25.250Z,984.2
2019-03-08T04:43:25.960Z,984.2
2019-03-08T04:44:26.663Z,984.2
2019-03-08T04:45:27.385Z,984.3
2019-03-08T04:46:28.095Z,984.3
2019-03-08T04:47:28.800Z,984.3
2019-03-08T04:48:29.498Z,984.3
2019-03-08T04:49:30.216Z,984.3
2019-03-08T04:50:30.922Z,984.3
2019-03-08T04:51:31.629Z,984.4
2019-03-08T04:52:32.340Z,984.4
2019-03-08T04:53:33.058Z,984.4
2019-03-08T04:54:33.748Z,984.4
2019-03-08T04:55:34.455Z,984.4
2019-03-08T04:56:35.154Z,984.4
2019-03-08T04:57:35.862Z,984.4
2019-03-08T04:58:36.560Z,984.4
2019-03-08T04:59:37.270Z,984.5
2019-03-08T05:00:37.988Z,984.4
2019-03-08T05:01:38.689Z,984.5
2019-03-08T05:02:39.452Z,984.6
2019-03-08T05:03:40.168Z,984.6
2019-03-08T05:04:40.879Z,984.6
2019-03-08T05:05:41.585Z,984.6
2019-03-08T05:06:42.283Z,984.7
2019-03-08T05:07:43.049Z,984.6
2019-03-08T05:08:45.744Z,984.7
2019-03-08T05:09:44.481Z,984.7
2019-03-08T05:10:45.174Z,984.8
2019-03-08T05:11:46.145Z,984.8
2019-03-08T05:12:46.841Z,984.7
2019-03-08T05:13:47.557Z,984.7
2019-03-08T05:14:48.263Z,984.8
2019-03-08T05:15:48.971Z,984.9
2019-03-08T05:16:49.674Z,984.8
2019-03-08T05:17:50.390Z,984.9
2019-03-08T05:18:51.152Z,984.9
2019-03-08T05:19:51.867Z,984.9
2019-03-08T05:20:52.570Z,985.0
2019-03-08T05:21:53.277Z,985.0
2019-03-08T05:22:53.996Z,984.9
2019-03-08T05:23:54.710Z,985.0
2019-03-08T05:24:55.414Z,985.0
2019-03-08T05:25:56.112Z,985.0
2019-03-08T05:26:57.066Z,985.0
2019-03-08T05:27:57.782Z,985.1
2019-03-08T05:28:58.485Z,985.1
2019-03-08T05:29:59.198Z,985.2
2019-03-08T05:30:59.899Z,985.2
2019-03-08T05:32:00.614Z,985.2
2019-03-08T05:33:01.319Z,985.2
2019-03-08T05:34:02.030Z,985.2
2019-03-08T05:35:02.742Z,985.2
2019-03-08T05:36:03.454Z,985.2
2019-03-08T05:37:04.141Z,985.3
2019-03-08T05:38:04.848Z,985.3
2019-03-08T05:39:05.559Z,985.3
2019-03-08T05:40:07.632Z,985.2
2019-03-08T05:41:08.348Z,985.3
2019-03-08T05:42:09.138Z,985.4
2019-03-08T05:43:10.339Z,985.5
2019-03-08T05:44:11.050Z,985.5
2019-03-08T05:45:12.392Z,985.5
2019-03-08T05:46:13.151Z,985.6
2019-03-08T05:47:13.877Z,985.5
2019-03-08T05:48:14.587Z,985.6
2019-03-08T05:49:15.298Z,985.6
2019-03-08T05:50:16.022Z,985.7
2019-03-08T05:51:16.723Z,985.7
2019-03-08T05:52:17.429Z,985.7
2019-03-08T05:53:18.131Z,985.6
2019-03-08T05:54:18.853Z,985.8
2019-03-08T05:55:19.554Z,985.8
2019-03-08T05:56:20.255Z,985.8
2019-03-08T05:57:20.971Z,985.8
2019-03-08T05:58:21.680Z,985.8
2019-03-08T05:59:22.640Z,985.9
2019-03-08T06:00:31.965Z,985.9
2019-03-08T06:01:24.058Z,985.9
2019-03-08T06:02:24.779Z,985.9
2019-03-08T06:03:25.489Z,985.9
2019-03-08T06:04:26.209Z,985.9
2019-03-08T06:05:26.921Z,986.0
2019-03-08T06:06:27.630Z,986.1
2019-03-08T06:07:28.343Z,986.1
2019-03-08T06:08:29.068Z,986.0
2019-03-08T06:09:29.772Z,986.2
2019-03-08T06:10:30.484Z,986.2
2019-03-08T06:11:31.184Z,986.2
2019-03-08T06:12:31.900Z,986.2
2019-03-08T06:13:32.607Z,986.2
2019-03-08T06:14:33.326Z,986.3
2019-03-08T06:15:34.048Z,986.3
2019-03-08T06:16:34.765Z,986.3
2019-03-08T06:17:35.492Z,986.4
2019-03-08T06:18:36.206Z,986.4
2019-03-08T06:19:37.241Z,986.4
2019-03-08T06:20:37.955Z,986.4
2019-03-08T06:21:38.670Z,986.5
2019-03-08T06:22:39.402Z,986.4
2019-03-08T06:23:40.090Z,986.5
2019-03-08T06:24:40.904Z,986.6
2019-03-08T06:25:41.603Z,986.6
2019-03-08T06:26:42.319Z,986.6
2019-03-08T06:27:43.023Z,986.7
2019-03-08T06:28:43.737Z,986.8
2019-03-08T06:29:44.461Z,986.8
2019-03-08T06:30:45.171Z,986.8
2019-03-08T06:31:45.890Z,986.9
2019-03-08T06:32:46.594Z,986.9
2019-03-08T06:33:47.309Z,986.9
2019-03-08T06:34:48.070Z,986.9
2019-03-08T06:35:48.770Z,987.0
2019-03-08T06:36:49.493Z,987.0
2019-03-08T06:37:50.215Z,986.9
2019-03-08T06:38:51.201Z,987.0
2019-03-08T06:39:51.925Z,986.9
2019-03-08T06:40:52.617Z,987.0
2019-03-08T06:41:53.358Z,987.1
2019-03-08T06:42:54.085Z,987.1
2019-03-08T06:43:54.790Z,987.1
2019-03-08T06:44:55.508Z,987.0
2019-03-08T06:45:56.208Z,987.2
2019-03-08T06:46:56.929Z,987.2
2019-03-08T06:47:57.638Z,987.3
2019-03-08T06:48:58.344Z,987.3
2019-03-08T06:49:59.071Z,987.3
2019-03-08T06:50:59.799Z,987.4
2019-03-08T06:52:00.966Z,987.5
2019-03-08T06:53:01.223Z,987.5
2019-03-08T06:54:01.939Z,987.5
2019-03-08T06:55:02.649Z,987.6
2019-03-08T06:56:03.370Z,987.6
2019-03-08T06:57:04.068Z,987.6
2019-03-08T06:58:04.774Z,987.6
2019-03-08T06:59:05.507Z,987.7
2019-03-08T07:00:06.226Z,987.7
2019-03-08T07:01:06.939Z,987.7
2019-03-08T07:02:07.646Z,987.8
2019-03-08T07:03:08.364Z,987.8
2019-03-08T07:04:09.083Z,987.9
2019-03-08T07:05:09.780Z,987.9
2019-03-08T07:06:10.537Z,987.9
2019-03-08T07:07:11.261Z,988.0
2019-03-08T07:08:13.593Z,988.1
2019-03-08T07:09:12.681Z,988.1
2019-03-08T07:10:13.408Z,988.1
2019-03-08T07:11:14.131Z,988.1
2019-03-08T07:12:14.887Z,988.1
2019-03-08T07:13:15.613Z,988.1
2019-03-08T07:14:16.328Z,988.1
2019-03-08T07:15:17.037Z,988.2
2019-03-08T07:16:17.750Z,988.2
2019-03-08T07:17:20.481Z,988.4
2019-03-08T07:18:19.190Z,988.3
2019-03-08T07:19:19.908Z,988.3
2019-03-08T07:20:20.630Z,988.4
2019-03-08T07:21:21.352Z,988.5
2019-03-08T07:22:22.329Z,988.5
2019-03-08T07:23:27.957Z,988.6
2019-03-08T07:24:23.738Z,988.6
2019-03-08T07:25:24.502Z,988.6
2019-03-08T07:26:25.200Z,988.6
2019-03-08T07:27:25.920Z,988.6
2019-03-08T07:28:26.623Z,988.7
2019-03-08T07:29:27.345Z,988.8
2019-03-08T07:30:28.213Z,988.8
2019-03-08T07:31:28.923Z,988.8
2019-03-08T07:32:29.633Z,988.8
2019-03-08T07:33:30.350Z,988.8
2019-03-08T07:34:31.066Z,988.9
2019-03-08T07:35:31.768Z,988.9
2019-03-08T07:36:32.498Z,989.0
2019-03-08T07:37:33.213Z,989.0
2019-03-08T07:38:33.924Z,989.0
2019-03-08T07:39:34.637Z,989.1
2019-03-08T07:40:36.045Z,989.1
2019-03-08T07:41:36.975Z,989.1
2019-03-08T07:42:37.682Z,989.1
2019-03-08T07:43:38.393Z,989.2
2019-03-08T07:44:39.105Z,989.2
2019-03-08T07:45:39.819Z,989.2
2019-03-08T07:46:40.520Z,989.3
2019-03-08T07:47:41.231Z,989.3
2019-03-08T07:48:41.946Z,989.3
2019-03-08T07:49:42.640Z,989.4
2019-03-08T07:50:43.368Z,989.4
2019-03-08T07:51:44.083Z,989.4
2019-03-08T07:52:44.784Z,989.5
2019-03-08T07:53:45.503Z,989.6
2019-03-08T07:54:52.612Z,989.6
2019-03-08T07:55:46.933Z,989.5
2019-03-08T07:56:47.649Z,989.6
2019-03-08T07:57:48.366Z,989.5
2019-03-08T07:58:49.083Z,989.6
2019-03-08T07:59:53.600Z,989.7
2019-03-08T08:00:50.508Z,989.7
2019-03-08T08:01:51.277Z,989.7
2019-03-08T08:02:52.011Z,989.8
2019-03-08T08:03:52.727Z,989.8
2019-03-08T08:04:53.440Z,989.8
2019-03-08T08:05:57.950Z,989.8
2019-03-08T08:06:54.872Z,989.8
2019-03-08T08:07:55.590Z,989.8
2019-03-08T08:08:56.294Z,989.9
2019-03-08T08:09:57.005Z,990.0
2019-03-08T08:10:57.717Z,990.0
2019-03-08T08:11:58.426Z,990.0
2019-03-08T08:12:59.143Z,990.1
2019-03-08T08:13:59.864Z,990.1
2019-03-08T08:15:00.562Z,990.1
2019-03-08T08:16:01.278Z,990.1
2019-03-08T08:17:01.983Z,990.2
2019-03-08T08:18:02.682Z,990.2
2019-03-08T08:19:03.402Z,990.3
2019-03-08T08:20:04.112Z,990.2
2019-03-08T08:21:04.814Z,990.3
2019-03-08T08:22:05.521Z,990.3
2019-03-08T08:23:06.236Z,990.4
2019-03-08T08:24:07.090Z,990.4
2019-03-08T08:25:07.800Z,990.5
2019-03-08T08:26:08.521Z,990.5
2019-03-08T08:27:09.225Z,990.6
2019-03-08T08:28:09.946Z,990.6
2019-03-08T08:29:10.725Z,990.7
2019-03-08T08:30:11.441Z,990.6
2019-03-08T08:31:12.156Z,990.7
2019-03-08T08:32:12.882Z,990.7
2019-03-08T08:33:13.604Z,990.8
2019-03-08T08:34:14.320Z,990.8
2019-03-08T08:35:15.080Z,990.9
2019-03-08T08:36:15.794Z,990.9
2019-03-08T08:37:16.510Z,990.9
2019-03-08T08:38:17.210Z,990.9
2019-03-08T08:39:18.189Z,990.9
2019-03-08T08:40:18.900Z,991.0
2019-03-08T08:41:19.605Z,991.0
2019-03-08T08:42:20.318Z,991.0
2019-03-08T08:43:21.032Z,991.0
2019-03-08T08:44:21.756Z,991.0
2019-03-08T08:45:22.472Z,991.1
2019-03-08T08:46:23.184Z,991.1
2019-03-08T08:47:23.907Z,991.1
2019-03-08T08:48:24.627Z,991.1
2019-03-08T08:49:25.355Z,991.1
2019-03-08T08:50:26.039Z,991.2
2019-03-08T08:51:26.747Z,991.2
2019-03-08T08:52:27.475Z,991.3
2019-03-08T08:53:28.190Z,991.2
2019-03-08T08:54:28.914Z,991.2
2019-03-08T08:55:29.626Z,991.3
2019-03-08T08:56:30.355Z,991.3
2019-03-08T08:57:31.055Z,991.3
2019-03-08T08:58:31.772Z,991.3
2019-03-08T08:59:32.484Z,991.3
2019-03-08T09:00:33.224Z,991.4
2019-03-08T09:01:33.929Z,991.4
2019-03-08T09:02:34.628Z,991.4
2019-03-08T09:03:35.359Z,991.4
2019-03-08T09:04:36.071Z,991.5
2019-03-08T09:05:36.776Z,991.5
2019-03-08T09:06:37.504Z,991.5
2019-03-08T09:07:38.223Z,991.5
2019-03-08T09:08:38.942Z,991.5
2019-03-08T09:09:39.662Z,991.5
2019-03-08T09:10:40.377Z,991.5
2019-03-08T09:11:45.966Z,991.6
2019-03-08T09:12:41.802Z,991.5
2019-03-08T09:13:42.506Z,991.6
2019-03-08T09:14:43.223Z,991.6
2019-03-08T09:15:43.927Z,991.7
2019-03-08T09:16:44.639Z,991.7
2019-03-08T09:17:45.370Z,991.7
2019-03-08T09:18:46.087Z,991.7
2019-03-08T09:19:46.797Z,991.7
2019-03-08T09:20:47.519Z,991.7
2019-03-08T09:21:48.244Z,991.7
2019-03-08T09:22:48.953Z,991.7
2019-03-08T09:23:49.671Z,991.7
2019-03-08T09:24:50.383Z,991.7
2019-03-08T09:25:51.107Z,991.7
2019-03-08T09:26:51.832Z,991.8
2019-03-08T09:27:52.546Z,991.7
2019-03-08T09:28:53.284Z,991.8
2019-03-08T09:29:53.998Z,991.7
2019-03-08T09:30:54.714Z,991.8
2019-03-08T09:31:55.435Z,991.8
2019-03-08T09:32:59.149Z,991.8
2019-03-08T09:33:56.871Z,991.8
2019-03-08T09:34:57.573Z,991.8
2019-03-08T09:35:58.295Z,991.8
2019-03-08T09:36:59.012Z,991.8
2019-03-08T09:37:59.891Z,991.9
2019-03-08T09:39:00.680Z,992.0
2019-03-08T09:40:01.541Z,991.9
2019-03-08T09:41:02.265Z,992.0
2019-03-08T09:42:03.057Z,992.0
2019-03-08T09:43:03.922Z,992.1
2019-03-08T09:44:04.702Z,992.2
2019-03-08T09:45:05.419Z,992.2
2019-03-08T09:46:06.144Z,992.2
2019-03-08T09:47:06.869Z,992.3
2019-03-08T09:48:07.585Z,992.3
2019-03-08T09:49:08.299Z,992.4
2019-03-08T09:50:09.008Z,992.5
2019-03-08T09:51:09.707Z,992.5
2019-03-08T09:52:10.439Z,992.5
2019-03-08T09:53:11.167Z,992.6
2019-03-08T09:54:11.996Z,992.5
2019-03-08T09:55:12.705Z,992.6
2019-03-08T09:56:13.444Z,992.6
2019-03-08T09:57:14.150Z,992.6
2019-03-08T09:58:14.869Z,992.6
2019-03-08T09:59:15.586Z,992.6
2019-03-08T10:00:16.298Z,992.6
2019-03-08T10:01:17.096Z,992.6
2019-03-08T10:02:17.721Z,992.7
2019-03-08T10:03:18.443Z,992.7
2019-03-08T10:04:19.146Z,992.7
2019-03-08T10:05:19.866Z,992.8
2019-03-08T10:06:20.584Z,992.7
2019-03-08T10:07:21.294Z,992.7
2019-03-08T10:08:22.013Z,992.7
2019-03-08T10:09:22.726Z,992.7
2019-03-08T10:10:23.444Z,992.7
2019-03-08T10:11:24.154Z,992.7
2019-03-08T10:12:24.957Z,992.7
2019-03-08T10:13:25.676Z,992.7
2019-03-08T10:14:26.398Z,992.7
2019-03-08T10:15:27.115Z,992.7
2019-03-08T10:16:27.857Z,992.7
2019-03-08T10:17:28.611Z,992.8
2019-03-08T10:18:29.464Z,992.8
2019-03-08T10:19:30.168Z,992.8
2019-03-08T10:20:31.234Z,992.7
2019-03-08T10:21:31.963Z,992.7
2019-03-08T10:22:32.704Z,992.7
2019-03-08T10:23:33.410Z,992.7
2019-03-08T10:24:34.125Z,992.7
2019-03-08T10:25:34.843Z,992.8
2019-03-08T10:26:35.573Z,992.8
2019-03-08T10:27:38.383Z,992.9
2019-03-08T10:28:37.004Z,992.9
2019-03-08T10:29:37.713Z,992.9
2019-03-08T10:30:38.438Z,993.0
2019-03-08T10:31:39.162Z,992.9
2019-03-08T10:32:39.886Z,992.9
2019-03-08T10:33:46.439Z,993.0
2019-03-08T10:34:41.331Z,992.9
2019-03-08T10:35:42.037Z,993.0
2019-03-08T10:36:42.745Z,993.1
2019-03-08T10:37:43.478Z,993.0
2019-03-08T10:38:46.232Z,993.1
2019-03-08T10:39:44.919Z,993.3
2019-03-08T10:40:45.660Z,993.4
2019-03-08T10:41:46.451Z,993.4
2019-03-08T10:42:47.162Z,993.4
2019-03-08T10:43:47.880Z,993.4
2019-03-08T10:44:48.598Z,993.4
2019-03-08T10:45:49.316Z,993.4
2019-03-08T10:46:50.026Z,993.5
2019-03-08T10:47:56.115Z,993.6
2019-03-08T10:48:51.468Z,993.7
2019-03-08T10:49:55.119Z,993.7
2019-03-08T10:50:52.900Z,993.8
2019-03-08T10:51:53.621Z,993.7
2019-03-08T10:52:54.382Z,993.7
2019-03-08T10:54:00.690Z,993.8
2019-03-08T10:54:55.810Z,993.7
2019-03-08T10:55:56.543Z,993.8
2019-03-08T10:56:57.268Z,993.9
2019-03-08T10:57:58.088Z,993.9
2019-03-08T10:58:58.811Z,993.9
2019-03-08T10:59:59.537Z,993.9
2019-03-08T11:01:00.260Z,993.9
2019-03-08T11:02:00.973Z,993.9
2019-03-08T11:03:01.779Z,993.9
2019-03-08T11:04:02.524Z,993.9
2019-03-08T11:05:03.225Z,993.9
2019-03-08T11:06:03.939Z,993.9
2019-03-08T11:07:04.653Z,993.9
2019-03-08T11:08:05.381Z,993.9
2019-03-08T11:09:06.094Z,993.9
2019-03-08T11:10:06.815Z,994.0
2019-03-08T11:11:07.532Z,994.0
2019-03-08T11:12:08.241Z,994.0
2019-03-08T11:13:08.975Z,994.0
2019-03-08T11:14:09.785Z,994.0
2019-03-08T11:15:10.499Z,994.1
2019-03-08T11:16:11.204Z,994.1
2019-03-08T11:17:11.935Z,994.1
2019-03-08T11:18:12.655Z,994.1
2019-03-08T11:19:13.357Z,994.1
2019-03-08T11:20:14.070Z,994.1
2019-03-08T11:21:15.090Z,994.2
2019-03-08T11:22:15.510Z,994.2
2019-03-08T11:23:16.229Z,994.2
2019-03-08T11:24:16.959Z,994.1
2019-03-08T11:25:17.681Z,994.2
2019-03-08T11:26:18.428Z,994.2
2019-03-08T11:27:19.189Z,994.3
2019-03-08T11:28:21.296Z,994.3
2019-03-08T11:29:20.937Z,994.3
2019-03-08T11:30:21.892Z,994.3
2019-03-08T11:31:22.743Z,994.3
2019-03-08T11:32:23.557Z,994.3
2019-03-08T11:33:24.182Z,994.4
2019-03-08T11:34:25.483Z,994.4
2019-03-08T11:35:25.608Z,994.4
2019-03-08T11:36:26.431Z,994.4
2019-03-08T11:37:27.917Z,994.5
2019-03-08T11:38:27.863Z,994.5
2019-03-08T11:39:28.565Z,994.5
2019-03-08T11:40:29.284Z,994.6
2019-03-08T11:41:30.003Z,994.6
2019-03-08T11:42:30.769Z,994.6
2019-03-08T11:43:31.473Z,994.6
2019-03-08T11:44:32.183Z,994.6
2019-03-08T11:45:32.907Z,994.6
2019-03-08T11:46:33.887Z,994.6
2019-03-08T11:47:34.634Z,994.6
2019-03-08T11:48:35.357Z,994.7
2019-03-08T11:49:36.075Z,994.7
2019-03-08T11:50:36.786Z,994.8
2019-03-08T11:51:37.499Z,994.7
2019-03-08T11:52:38.299Z,994.8
2019-03-08T11:53:39.009Z,994.8
2019-03-08T11:54:41.022Z,994.8
2019-03-08T11:55:40.449Z,994.8
2019-03-08T11:56:41.428Z,994.9
2019-03-08T11:57:42.234Z,994.9
2019-03-08T11:58:42.952Z,994.9
2019-03-08T11:59:43.671Z,994.9
2019-03-08T12:00:44.395Z,994.9
2019-03-08T12:01:45.105Z,994.9
2019-03-08T12:02:45.820Z,994.9
2019-03-08T12:03:46.633Z,994.8
2019-03-08T12:04:47.349Z,994.9
2019-03-08T12:05:49.877Z,994.9
2019-03-08T12:06:48.788Z,994.9
2019-03-08T12:07:49.510Z,994.9
2019-03-08T12:08:50.325Z,994.9
2019-03-08T12:09:51.047Z,994.9
2019-03-08T12:10:51.764Z,994.9
2019-03-08T12:11:52.834Z,994.9
2019-03-08T12:12:53.619Z,995.0
2019-03-08T12:13:55.303Z,995.0
2019-03-08T12:14:56.001Z,995.0
2019-03-08T12:15:56.714Z,995.0
2019-03-08T12:16:57.444Z,995.0
2019-03-08T12:17:58.178Z,995.0
2019-03-08T12:18:58.922Z,995.0
2019-03-08T12:19:59.641Z,995.0
2019-03-08T12:21:00.361Z,995.0
2019-03-08T12:22:01.073Z,995.0
2019-03-08T12:23:01.774Z,995.0
2019-03-08T12:24:02.509Z,995.0
2019-03-08T12:25:03.231Z,995.0
2019-03-08T12:26:05.161Z,995.0
2019-03-08T12:27:05.900Z,995.1
2019-03-08T12:28:06.607Z,995.1
2019-03-08T12:29:07.325Z,995.1
2019-03-08T12:30:08.621Z,995.1
2019-03-08T12:31:09.537Z,995.1
2019-03-08T12:32:10.269Z,995.2
2019-03-08T12:33:11.007Z,995.2
2019-03-08T12:34:11.723Z,995.2
2019-03-08T12:35:12.477Z,995.2
2019-03-08T12:36:13.190Z,995.1
2019-03-08T12:37:13.914Z,995.2
2019-03-08T12:38:14.636Z,995.2
2019-03-08T12:39:15.351Z,995.2
2019-03-08T12:40:16.069Z,995.3
2019-03-08T12:41:17.079Z,995.2
2019-03-08T12:42:17.798Z,995.3
2019-03-08T12:43:18.514Z,995.3
2019-03-08T12:44:19.236Z,995.2
2019-03-08T12:45:19.968Z,995.3
2019-03-08T12:46:20.681Z,995.3
2019-03-08T12:47:21.413Z,995.3
2019-03-08T12:48:24.119Z,995.3
2019-03-08T12:49:22.843Z,995.3
2019-03-08T12:50:23.568Z,995.3
2019-03-08T12:51:24.294Z,995.3
2019-03-08T12:52:25.015Z,995.3
2019-03-08T12:53:25.720Z,995.3
2019-03-08T12:54:26.540Z,995.3
2019-03-08T12:55:27.268Z,995.3
2019-03-08T12:56:27.996Z,995.3
2019-03-08T12:57:28.714Z,995.2
2019-03-08T12:58:29.679Z,995.2
2019-03-08T12:59:30.554Z,995.3
2019-03-08T13:00:31.276Z,995.3
2019-03-08T13:01:31.993Z,995.3